Terminal Aerodrome Forecast
Issued by NWS Jackson, MS

Home | Current Version | Previous Version | Text Only | Print | Product List | Glossary On
Versions: 1 2 3 4 5 6 7 8 9 10 11 12
000
FTUS44 KJAN 231738
TAFGLH
TAF
KGLH 231738Z 2318/2418 27011KT P6SM VCSH SCT015 OVC025
     FM240200 29007KT P6SM OVC040
     FM240700 30007KT P6SM BKN015 OVC025
     FM241400 32011KT P6SM OVC007
     FM241600 33010KT P6SM OVC015=

USA.gov is the U.S. government's official web portal to all federal, state and local government web resources and services.